DNMN

Minna Airport

Minna, Nigeria
METAR DNMN 232200Z 18020KT 9999 BKN009 24/23 Q1010
Observed Flight Rules
Jun-23 @ 22:00 UTC (17 hours ago) Instrument Flight Rules
Wind Visibility Clouds
180° at 20 knots 10,000+ meters
  • Broken at 900' AGL
Temperatures Readings
Current 24°C / 75°F
Dewpoint 23°C / 73°F
Humidity 94%
Altimeter 29.82" Hg
Pressure 1010 hPa
Elevation 254
METAR DNMN 232200Z 18020KT 9999 BKN009 24/23 Q1010
Observed Flight Rules
Jun-23 @ 22:00 UTC
(17 hours ago)
IFR
Wind Visibility
180° at 20 knots 10,000+ meters
Clouds
  • Broken at 900' AGL
Temperature Dewpoint
24°C / 75°F 23°C / 73°F
Humidity Altimeter Pressure
94% 29.82" Hg 1010 hPa